sensor_id;sensor_type;location;lat;lon;timestamp;temperature;humidity
76333;DHT22;71254;53.010;6.508;2024-01-25T00:00:21;7.60;99.90
76333;DHT22;71254;53.010;6.508;2024-01-25T00:02:47;7.60;99.90
76333;DHT22;71254;53.010;6.508;2024-01-25T00:05:13;7.60;99.90
76333;DHT22;71254;53.010;6.508;2024-01-25T00:07:46;7.50;99.90
76333;DHT22;71254;53.010;6.508;2024-01-25T00:10:11;8.20;99.90
76333;DHT22;71254;53.010;6.508;2024-01-25T00:12:37;7.40;99.90
76333;DHT22;71254;53.010;6.508;2024-01-25T00:15:03;7.40;99.90
76333;DHT22;71254;53.010;6.508;2024-01-25T00:17:31;7.30;99.90
76333;DHT22;71254;53.010;6.508;2024-01-25T00:19:57;7.30;99.90
76333;DHT22;71254;53.010;6.508;2024-01-25T00:22:22;7.70;99.90
76333;DHT22;71254;53.010;6.508;2024-01-25T00:24:48;7.30;99.90
76333;DHT22;71254;53.010;6.508;2024-01-25T00:27:13;7.20;99.90
76333;DHT22;71254;53.010;6.508;2024-01-25T00:29:39;7.20;99.90
76333;DHT22;71254;53.010;6.508;2024-01-25T00:32:10;7.10;99.90
76333;DHT22;71254;53.010;6.508;2024-01-25T00:34:35;7.10;99.90
76333;DHT22;71254;53.010;6.508;2024-01-25T00:37:01;7.00;99.90
76333;DHT22;71254;53.010;6.508;2024-01-25T00:39:27;7.00;99.90
76333;DHT22;71254;53.010;6.508;2024-01-25T00:41:58;6.90;99.90
76333;DHT22;71254;53.010;6.508;2024-01-25T00:44:28;6.90;99.90
76333;DHT22;71254;53.010;6.508;2024-01-25T00:46:54;6.90;99.90
76333;DHT22;71254;53.010;6.508;2024-01-25T00:49:20;6.80;99.90
76333;DHT22;71254;53.010;6.508;2024-01-25T00:51:47;6.80;99.90
76333;DHT22;71254;53.010;6.508;2024-01-25T00:54:14;6.80;99.90
76333;DHT22;71254;53.010;6.508;2024-01-25T00:56:40;6.80;99.90
76333;DHT22;71254;53.010;6.508;2024-01-25T00:59:06;6.80;99.90
76333;DHT22;71254;53.010;6.508;2024-01-25T01:01:32;6.70;99.90
76333;DHT22;71254;53.010;6.508;2024-01-25T01:03:58;6.70;99.90
76333;DHT22;71254;53.010;6.508;2024-01-25T01:06:24;6.60;99.90
76333;DHT22;71254;53.010;6.508;2024-01-25T01:08:50;6.60;99.90
76333;DHT22;71254;53.010;6.508;2024-01-25T01:11:17;6.50;99.90
76333;DHT22;71254;53.010;6.508;2024-01-25T01:13:42;6.50;99.90
76333;DHT22;71254;53.010;6.508;2024-01-25T01:16:08;6.50;99.90
76333;DHT22;71254;53.010;6.508;2024-01-25T01:18:34;6.50;99.90
76333;DHT22;71254;53.010;6.508;2024-01-25T01:20:59;6.50;99.90
76333;DHT22;71254;53.010;6.508;2024-01-25T01:23:25;6.50;99.90
76333;DHT22;71254;53.010;6.508;2024-01-25T01:25:51;6.40;99.90
76333;DHT22;71254;53.010;6.508;2024-01-25T01:28:16;6.40;99.90
76333;DHT22;71254;53.010;6.508;2024-01-25T01:30:42;6.40;99.90
76333;DHT22;71254;53.010;6.508;2024-01-25T01:33:09;6.40;99.90
76333;DHT22;71254;53.010;6.508;2024-01-25T01:35:35;6.30;99.90
76333;DHT22;71254;53.010;6.508;2024-01-25T01:38:00;6.30;99.90
76333;DHT22;71254;53.010;6.508;2024-01-25T01:40:26;6.30;99.90
76333;DHT22;71254;53.010;6.508;2024-01-25T01:42:52;6.20;99.90
76333;DHT22;71254;53.010;6.508;2024-01-25T01:45:23;6.20;99.90
76333;DHT22;71254;53.010;6.508;2024-01-25T01:47:49;6.20;99.90
76333;DHT22;71254;53.010;6.508;2024-01-25T01:50:15;6.20;99.90
76333;DHT22;71254;53.010;6.508;2024-01-25T01:52:41;6.10;99.90
76333;DHT22;71254;53.010;6.508;2024-01-25T01:55:07;6.10;99.90
76333;DHT22;71254;53.010;6.508;2024-01-25T01:57:34;6.10;99.90
76333;DHT22;71254;53.010;6.508;2024-01-25T02:00:03;6.00;99.90
76333;DHT22;71254;53.010;6.508;2024-01-25T02:02:30;6.00;99.90
76333;DHT22;71254;53.010;6.508;2024-01-25T02:04:56;6.00;99.90
76333;DHT22;71254;53.010;6.508;2024-01-25T02:07:21;6.00;99.90
76333;DHT22;71254;53.010;6.508;2024-01-25T02:09:47;5.90;99.90
76333;DHT22;71254;53.010;6.508;2024-01-25T02:12:15;6.00;99.90
76333;DHT22;71254;53.010;6.508;2024-01-25T02:14:42;6.00;99.90
76333;DHT22;71254;53.010;6.508;2024-01-25T02:17:08;6.00;99.90
76333;DHT22;71254;53.010;6.508;2024-01-25T02:19:34;5.90;99.90
76333;DHT22;71254;53.010;6.508;2024-01-25T02:21:59;5.90;99.90
76333;DHT22;71254;53.010;6.508;2024-01-25T02:24:26;5.90;99.90
76333;DHT22;71254;53.010;6.508;2024-01-25T02:26:52;5.90;99.90
76333;DHT22;71254;53.010;6.508;2024-01-25T02:29:17;5.90;99.90
76333;DHT22;71254;53.010;6.508;2024-01-25T02:31:43;5.80;99.90
76333;DHT22;71254;53.010;6.508;2024-01-25T02:34:09;5.80;99.90
76333;DHT22;71254;53.010;6.508;2024-01-25T02:36:34;5.80;99.90
76333;DHT22;71254;53.010;6.508;2024-01-25T02:39:00;5.80;99.90
76333;DHT22;71254;53.010;6.508;2024-01-25T02:41:29;5.80;99.90
76333;DHT22;71254;53.010;6.508;2024-01-25T02:43:55;5.70;99.90
76333;DHT22;71254;53.010;6.508;2024-01-25T02:46:20;5.70;99.90
76333;DHT22;71254;53.010;6.508;2024-01-25T02:48:46;5.70;99.90
76333;DHT22;71254;53.010;6.508;2024-01-25T02:51:12;5.70;99.90
76333;DHT22;71254;53.010;6.508;2024-01-25T02:53:37;5.70;99.90
76333;DHT22;71254;53.010;6.508;2024-01-25T02:56:06;5.60;99.90
76333;DHT22;71254;53.010;6.508;2024-01-25T02:58:32;5.60;99.90
76333;DHT22;71254;53.010;6.508;2024-01-25T03:00:58;5.60;99.90
76333;DHT22;71254;53.010;6.508;2024-01-25T03:03:24;5.60;99.90
76333;DHT22;71254;53.010;6.508;2024-01-25T03:05:51;5.60;99.90
76333;DHT22;71254;53.010;6.508;2024-01-25T03:08:17;5.70;99.90
76333;DHT22;71254;53.010;6.508;2024-01-25T03:10:43;5.60;99.90
76333;DHT22;71254;53.010;6.508;2024-01-25T03:13:08;5.70;99.90
76333;DHT22;71254;53.010;6.508;2024-01-25T03:15:34;5.70;99.90
76333;DHT22;71254;53.010;6.508;2024-01-25T03:17:59;5.60;99.90
76333;DHT22;71254;53.010;6.508;2024-01-25T03:20:25;5.60;99.90
76333;DHT22;71254;53.010;6.508;2024-01-25T03:22:51;5.60;99.90
76333;DHT22;71254;53.010;6.508;2024-01-25T03:25:16;5.60;99.90
76333;DHT22;71254;53.010;6.508;2024-01-25T03:27:42;5.60;99.90
76333;DHT22;71254;53.010;6.508;2024-01-25T03:30:08;5.50;99.90
76333;DHT22;71254;53.010;6.508;2024-01-25T03:32:34;5.50;99.90
76333;DHT22;71254;53.010;6.508;2024-01-25T03:35:00;5.50;99.90
76333;DHT22;71254;53.010;6.508;2024-01-25T03:37:25;5.50;99.90
76333;DHT22;71254;53.010;6.508;2024-01-25T03:39:51;5.50;99.90
76333;DHT22;71254;53.010;6.508;2024-01-25T03:42:16;5.50;99.90
76333;DHT22;71254;53.010;6.508;2024-01-25T03:44:42;5.50;99.90
76333;DHT22;71254;53.010;6.508;2024-01-25T03:47:10;5.50;99.90
76333;DHT22;71254;53.010;6.508;2024-01-25T03:49:36;5.50;99.90
76333;DHT22;71254;53.010;6.508;2024-01-25T03:52:03;5.50;99.90
76333;DHT22;71254;53.010;6.508;2024-01-25T03:54:29;5.50;99.90
76333;DHT22;71254;53.010;6.508;2024-01-25T03:56:55;5.50;99.90
76333;DHT22;71254;53.010;6.508;2024-01-25T03:59:20;5.50;99.90
76333;DHT22;71254;53.010;6.508;2024-01-25T04:01:46;5.50;99.90
76333;DHT22;71254;53.010;6.508;2024-01-25T04:04:13;5.50;99.90
76333;DHT22;71254;53.010;6.508;2024-01-25T04:06:44;5.50;99.90
76333;DHT22;71254;53.010;6.508;2024-01-25T04:09:11;5.40;99.90
76333;DHT22;71254;53.010;6.508;2024-01-25T04:11:37;5.40;99.90
76333;DHT22;71254;53.010;6.508;2024-01-25T04:14:04;5.50;99.90
76333;DHT22;71254;53.010;6.508;2024-01-25T04:16:30;5.50;99.90
76333;DHT22;71254;53.010;6.508;2024-01-25T04:18:56;5.50;99.90
76333;DHT22;71254;53.010;6.508;2024-01-25T04:21:22;5.50;99.90
76333;DHT22;71254;53.010;6.508;2024-01-25T04:23:47;5.40;99.90
76333;DHT22;71254;53.010;6.508;2024-01-25T04:26:14;5.50;99.90
76333;DHT22;71254;53.010;6.508;2024-01-25T04:28:39;5.40;99.90
76333;DHT22;71254;53.010;6.508;2024-01-25T04:31:05;5.40;99.90
76333;DHT22;71254;53.010;6.508;2024-01-25T04:33:30;5.40;99.90
76333;DHT22;71254;53.010;6.508;2024-01-25T04:35:56;5.40;99.90
76333;DHT22;71254;53.010;6.508;2024-01-25T04:38:22;5.30;99.90
76333;DHT22;71254;53.010;6.508;2024-01-25T04:40:47;5.30;99.90
76333;DHT22;71254;53.010;6.508;2024-01-25T04:43:13;5.30;99.90
76333;DHT22;71254;53.010;6.508;2024-01-25T04:45:39;6.50;99.90
76333;DHT22;71254;53.010;6.508;2024-01-25T04:48:06;5.30;99.90
76333;DHT22;71254;53.010;6.508;2024-01-25T04:50:31;5.20;99.90
76333;DHT22;71254;53.010;6.508;2024-01-25T04:52:57;5.20;99.90
76333;DHT22;71254;53.010;6.508;2024-01-25T04:55:23;5.20;99.90
76333;DHT22;71254;53.010;6.508;2024-01-25T04:57:48;5.10;99.90
76333;DHT22;71254;53.010;6.508;2024-01-25T05:00:19;5.10;99.90
76333;DHT22;71254;53.010;6.508;2024-01-25T05:02:44;5.10;99.90
76333;DHT22;71254;53.010;6.508;2024-01-25T05:05:10;5.10;99.90
76333;DHT22;71254;53.010;6.508;2024-01-25T05:07:35;5.00;99.90
76333;DHT22;71254;53.010;6.508;2024-01-25T05:10:01;5.00;99.90
76333;DHT22;71254;53.010;6.508;2024-01-25T05:12:27;4.90;99.90
76333;DHT22;71254;53.010;6.508;2024-01-25T05:14:53;4.90;99.90
76333;DHT22;71254;53.010;6.508;2024-01-25T05:17:18;4.80;99.90
76333;DHT22;71254;53.010;6.508;2024-01-25T05:19:44;4.80;99.90
76333;DHT22;71254;53.010;6.508;2024-01-25T05:22:10;4.80;99.90
76333;DHT22;71254;53.010;6.508;2024-01-25T05:24:36;4.70;99.90
76333;DHT22;71254;53.010;6.508;2024-01-25T05:27:01;4.70;99.90
76333;DHT22;71254;53.010;6.508;2024-01-25T05:29:27;4.60;99.90
76333;DHT22;71254;53.010;6.508;2024-01-25T05:31:53;4.60;99.90
76333;DHT22;71254;53.010;6.508;2024-01-25T05:34:18;4.60;99.90
76333;DHT22;71254;53.010;6.508;2024-01-25T05:36:44;4.60;99.90
76333;DHT22;71254;53.010;6.508;2024-01-25T05:39:10;4.50;99.90
76333;DHT22;71254;53.010;6.508;2024-01-25T05:41:35;4.50;99.90
76333;DHT22;71254;53.010;6.508;2024-01-25T05:44:01;4.50;99.90
76333;DHT22;71254;53.010;6.508;2024-01-25T05:46:26;4.40;99.90
76333;DHT22;71254;53.010;6.508;2024-01-25T05:48:52;4.40;99.90
76333;DHT22;71254;53.010;6.508;2024-01-25T05:51:18;4.40;99.90
76333;DHT22;71254;53.010;6.508;2024-01-25T05:53:44;4.40;99.90
76333;DHT22;71254;53.010;6.508;2024-01-25T05:56:09;4.40;99.90
76333;DHT22;71254;53.010;6.508;2024-01-25T05:58:35;4.40;99.90
76333;DHT22;71254;53.010;6.508;2024-01-25T06:01:01;4.40;99.90
76333;DHT22;71254;53.010;6.508;2024-01-25T06:03:26;4.30;99.90
76333;DHT22;71254;53.010;6.508;2024-01-25T06:05:52;4.30;99.90
76333;DHT22;71254;53.010;6.508;2024-01-25T06:08:18;4.30;99.90
76333;DHT22;71254;53.010;6.508;2024-01-25T06:10:44;4.20;99.90
76333;DHT22;71254;53.010;6.508;2024-01-25T06:13:09;4.20;99.90
76333;DHT22;71254;53.010;6.508;2024-01-25T06:15:35;4.10;99.90
76333;DHT22;71254;53.010;6.508;2024-01-25T06:18:01;4.10;99.90
76333;DHT22;71254;53.010;6.508;2024-01-25T06:20:26;4.00;99.90
76333;DHT22;71254;53.010;6.508;2024-01-25T06:22:52;4.00;99.90
76333;DHT22;71254;53.010;6.508;2024-01-25T06:25:17;4.00;99.90
76333;DHT22;71254;53.010;6.508;2024-01-25T06:27:43;4.00;99.90
76333;DHT22;71254;53.010;6.508;2024-01-25T06:30:09;4.10;99.90
76333;DHT22;71254;53.010;6.508;2024-01-25T06:32:35;4.10;99.90
76333;DHT22;71254;53.010;6.508;2024-01-25T06:35:00;4.10;99.90
76333;DHT22;71254;53.010;6.508;2024-01-25T06:37:26;4.10;99.90
76333;DHT22;71254;53.010;6.508;2024-01-25T06:39:51;4.10;99.90
76333;DHT22;71254;53.010;6.508;2024-01-25T06:42:17;4.10;99.90
76333;DHT22;71254;53.010;6.508;2024-01-25T06:44:44;4.00;99.90
76333;DHT22;71254;53.010;6.508;2024-01-25T06:47:09;4.00;99.90
76333;DHT22;71254;53.010;6.508;2024-01-25T06:49:35;4.00;99.90
76333;DHT22;71254;53.010;6.508;2024-01-25T06:52:01;3.90;99.90
76333;DHT22;71254;53.010;6.508;2024-01-25T06:54:26;3.90;99.90
76333;DHT22;71254;53.010;6.508;2024-01-25T06:56:52;3.90;99.90
76333;DHT22;71254;53.010;6.508;2024-01-25T06:59:18;3.90;99.90
76333;DHT22;71254;53.010;6.508;2024-01-25T07:01:43;3.90;99.90
76333;DHT22;71254;53.010;6.508;2024-01-25T07:04:09;3.80;99.90
76333;DHT22;71254;53.010;6.508;2024-01-25T07:06:34;3.90;99.90
76333;DHT22;71254;53.010;6.508;2024-01-25T07:09:00;3.80;99.90
76333;DHT22;71254;53.010;6.508;2024-01-25T07:11:25;3.80;99.90
76333;DHT22;71254;53.010;6.508;2024-01-25T07:13:51;3.80;99.90
76333;DHT22;71254;53.010;6.508;2024-01-25T07:16:17;3.80;99.90
76333;DHT22;71254;53.010;6.508;2024-01-25T07:18:44;3.80;99.90
76333;DHT22;71254;53.010;6.508;2024-01-25T07:21:10;3.70;99.90
76333;DHT22;71254;53.010;6.508;2024-01-25T07:23:36;3.70;99.90
76333;DHT22;71254;53.010;6.508;2024-01-25T07:26:01;3.60;99.90
76333;DHT22;71254;53.010;6.508;2024-01-25T07:28:27;3.60;99.90
76333;DHT22;71254;53.010;6.508;2024-01-25T07:30:53;3.60;99.90
76333;DHT22;71254;53.010;6.508;2024-01-25T07:33:18;3.60;99.90
76333;DHT22;71254;53.010;6.508;2024-01-25T07:35:44;3.60;99.90
76333;DHT22;71254;53.010;6.508;2024-01-25T07:38:14;3.60;99.90
76333;DHT22;71254;53.010;6.508;2024-01-25T07:40:39;3.60;99.90
76333;DHT22;71254;53.010;6.508;2024-01-25T07:43:05;3.60;99.90
76333;DHT22;71254;53.010;6.508;2024-01-25T07:45:31;3.60;99.90
76333;DHT22;71254;53.010;6.508;2024-01-25T07:47:57;3.70;99.90
76333;DHT22;71254;53.010;6.508;2024-01-25T07:50:23;3.70;99.90
76333;DHT22;71254;53.010;6.508;2024-01-25T07:52:48;3.70;99.90
76333;DHT22;71254;53.010;6.508;2024-01-25T07:55:18;3.80;99.90
76333;DHT22;71254;53.010;6.508;2024-01-25T07:57:44;3.80;99.90
76333;DHT22;71254;53.010;6.508;2024-01-25T08:00:10;3.80;99.90
76333;DHT22;71254;53.010;6.508;2024-01-25T08:02:36;3.80;99.90
76333;DHT22;71254;53.010;6.508;2024-01-25T08:05:02;3.80;99.90
76333;DHT22;71254;53.010;6.508;2024-01-25T08:07:28;3.90;99.90
76333;DHT22;71254;53.010;6.508;2024-01-25T08:09:54;3.90;99.90
76333;DHT22;71254;53.010;6.508;2024-01-25T08:12:26;4.00;99.90
76333;DHT22;71254;53.010;6.508;2024-01-25T08:14:52;4.00;99.90
76333;DHT22;71254;53.010;6.508;2024-01-25T08:17:18;4.10;99.90
76333;DHT22;71254;53.010;6.508;2024-01-25T08:19:43;4.10;99.90
76333;DHT22;71254;53.010;6.508;2024-01-25T08:22:09;4.20;99.90
76333;DHT22;71254;53.010;6.508;2024-01-25T08:24:35;4.20;99.90
76333;DHT22;71254;53.010;6.508;2024-01-25T08:27:01;4.30;99.90
76333;DHT22;71254;53.010;6.508;2024-01-25T08:29:26;4.30;99.90
76333;DHT22;71254;53.010;6.508;2024-01-25T08:31:52;4.30;99.90
76333;DHT22;71254;53.010;6.508;2024-01-25T08:34:18;4.40;99.90
76333;DHT22;71254;53.010;6.508;2024-01-25T08:36:43;4.40;99.90
76333;DHT22;71254;53.010;6.508;2024-01-25T08:39:09;4.40;99.90
76333;DHT22;71254;53.010;6.508;2024-01-25T08:41:35;4.50;99.90
76333;DHT22;71254;53.010;6.508;2024-01-25T08:44:00;4.50;99.90
76333;DHT22;71254;53.010;6.508;2024-01-25T08:46:26;4.50;99.90
76333;DHT22;71254;53.010;6.508;2024-01-25T08:48:52;4.70;99.90
76333;DHT22;71254;53.010;6.508;2024-01-25T08:51:17;4.60;99.90
76333;DHT22;71254;53.010;6.508;2024-01-25T08:53:43;4.60;99.90
76333;DHT22;71254;53.010;6.508;2024-01-25T08:56:09;4.60;99.90
76333;DHT22;71254;53.010;6.508;2024-01-25T08:58:35;4.70;99.90
76333;DHT22;71254;53.010;6.508;2024-01-25T09:01:00;4.70;99.90
76333;DHT22;71254;53.010;6.508;2024-01-25T09:03:26;4.80;99.90
76333;DHT22;71254;53.010;6.508;2024-01-25T09:05:51;4.80;99.90
76333;DHT22;71254;53.010;6.508;2024-01-25T09:08:17;4.80;99.90
76333;DHT22;71254;53.010;6.508;2024-01-25T09:10:43;4.90;99.90
76333;DHT22;71254;53.010;6.508;2024-01-25T09:13:09;5.00;99.90
76333;DHT22;71254;53.010;6.508;2024-01-25T09:15:35;5.00;99.90
76333;DHT22;71254;53.010;6.508;2024-01-25T09:18:01;5.10;99.90
76333;DHT22;71254;53.010;6.508;2024-01-25T09:20:26;5.20;99.90
76333;DHT22;71254;53.010;6.508;2024-01-25T09:22:52;5.30;99.90
76333;DHT22;71254;53.010;6.508;2024-01-25T09:25:21;5.30;99.90
76333;DHT22;71254;53.010;6.508;2024-01-25T09:27:47;5.40;99.90
76333;DHT22;71254;53.010;6.508;2024-01-25T09:30:13;5.50;99.90
76333;DHT22;71254;53.010;6.508;2024-01-25T09:32:39;5.60;99.90
76333;DHT22;71254;53.010;6.508;2024-01-25T09:35:05;5.60;99.90
76333;DHT22;71254;53.010;6.508;2024-01-25T09:37:31;5.70;99.90
76333;DHT22;71254;53.010;6.508;2024-01-25T09:39:57;5.70;99.90
76333;DHT22;71254;53.010;6.508;2024-01-25T09:42:24;5.70;99.90
76333;DHT22;71254;53.010;6.508;2024-01-25T09:44:52;5.80;99.90
76333;DHT22;71254;53.010;6.508;2024-01-25T09:47:22;5.80;99.90
76333;DHT22;71254;53.010;6.508;2024-01-25T09:49:48;5.90;99.90
76333;DHT22;71254;53.010;6.508;2024-01-25T09:52:16;5.90;99.90
76333;DHT22;71254;53.010;6.508;2024-01-25T09:54:45;5.90;99.90
76333;DHT22;71254;53.010;6.508;2024-01-25T09:57:22;5.90;99.90
76333;DHT22;71254;53.010;6.508;2024-01-25T09:59:51;6.00;99.90
76333;DHT22;71254;53.010;6.508;2024-01-25T10:02:19;6.00;99.90
76333;DHT22;71254;53.010;6.508;2024-01-25T10:04:52;6.00;99.90
76333;DHT22;71254;53.010;6.508;2024-01-25T10:07:37;6.00;99.90
76333;DHT22;71254;53.010;6.508;2024-01-25T10:10:04;6.00;99.90
76333;DHT22;71254;53.010;6.508;2024-01-25T10:12:31;6.10;99.90
76333;DHT22;71254;53.010;6.508;2024-01-25T10:14:57;6.10;99.90
76333;DHT22;71254;53.010;6.508;2024-01-25T10:17:22;6.10;99.90
76333;DHT22;71254;53.010;6.508;2024-01-25T10:19:48;6.10;99.90
76333;DHT22;71254;53.010;6.508;2024-01-25T10:22:14;6.10;99.90
76333;DHT22;71254;53.010;6.508;2024-01-25T10:24:40;6.10;99.90
76333;DHT22;71254;53.010;6.508;2024-01-25T10:27:07;6.10;99.90
76333;DHT22;71254;53.010;6.508;2024-01-25T10:29:37;6.20;99.90
76333;DHT22;71254;53.010;6.508;2024-01-25T10:32:03;6.00;99.90
76333;DHT22;71254;53.010;6.508;2024-01-25T10:34:30;6.20;99.90
76333;DHT22;71254;53.010;6.508;2024-01-25T10:36:57;6.30;99.90
76333;DHT22;71254;53.010;6.508;2024-01-25T10:39:25;6.40;99.90
76333;DHT22;71254;53.010;6.508;2024-01-25T10:41:51;6.40;99.90
76333;DHT22;71254;53.010;6.508;2024-01-25T10:44:18;6.50;99.90
76333;DHT22;71254;53.010;6.508;2024-01-25T10:46:47;6.50;99.90
76333;DHT22;71254;53.010;6.508;2024-01-25T10:49:13;6.60;99.90
76333;DHT22;71254;53.010;6.508;2024-01-25T10:51:40;6.60;99.90
76333;DHT22;71254;53.010;6.508;2024-01-25T10:54:08;6.70;99.90
76333;DHT22;71254;53.010;6.508;2024-01-25T10:56:37;6.70;99.90
76333;DHT22;71254;53.010;6.508;2024-01-25T10:59:03;7.10;99.90
76333;DHT22;71254;53.010;6.508;2024-01-25T11:01:29;6.90;99.90
76333;DHT22;71254;53.010;6.508;2024-01-25T11:03:55;7.00;99.90
76333;DHT22;71254;53.010;6.508;2024-01-25T11:06:21;7.00;99.90
76333;DHT22;71254;53.010;6.508;2024-01-25T11:08:48;7.10;99.90
76333;DHT22;71254;53.010;6.508;2024-01-25T11:11:14;7.20;99.90
76333;DHT22;71254;53.010;6.508;2024-01-25T11:13:42;7.30;99.90
76333;DHT22;71254;53.010;6.508;2024-01-25T11:16:18;7.40;99.90
76333;DHT22;71254;53.010;6.508;2024-01-25T11:18:51;7.10;99.90
76333;DHT22;71254;53.010;6.508;2024-01-25T11:21:50;7.60;99.90
76333;DHT22;71254;53.010;6.508;2024-01-25T11:24:24;7.70;99.90
76333;DHT22;71254;53.010;6.508;2024-01-25T11:26:54;7.90;99.90
76333;DHT22;71254;53.010;6.508;2024-01-25T11:29:20;8.00;99.90
76333;DHT22;71254;53.010;6.508;2024-01-25T11:31:49;8.10;99.90
76333;DHT22;71254;53.010;6.508;2024-01-25T11:34:16;8.20;99.90
76333;DHT22;71254;53.010;6.508;2024-01-25T11:36:44;8.20;99.90
76333;DHT22;71254;53.010;6.508;2024-01-25T11:39:13;8.30;99.90
76333;DHT22;71254;53.010;6.508;2024-01-25T11:41:42;8.30;99.90
76333;DHT22;71254;53.010;6.508;2024-01-25T11:44:09;8.30;99.90
76333;DHT22;71254;53.010;6.508;2024-01-25T11:46:35;8.30;99.90
76333;DHT22;71254;53.010;6.508;2024-01-25T11:49:01;8.20;99.90
76333;DHT22;71254;53.010;6.508;2024-01-25T11:51:27;8.20;99.90
76333;DHT22;71254;53.010;6.508;2024-01-25T11:53:56;8.20;99.90
76333;DHT22;71254;53.010;6.508;2024-01-25T11:56:25;8.20;99.90
76333;DHT22;71254;53.010;6.508;2024-01-25T11:58:52;8.20;99.90
76333;DHT22;71254;53.010;6.508;2024-01-25T12:01:19;8.20;99.90
76333;DHT22;71254;53.010;6.508;2024-01-25T12:03:45;8.20;99.90
76333;DHT22;71254;53.010;6.508;2024-01-25T12:06:12;8.30;99.90
76333;DHT22;71254;53.010;6.508;2024-01-25T12:08:37;8.30;99.90
76333;DHT22;71254;53.010;6.508;2024-01-25T12:11:10;8.30;99.90
76333;DHT22;71254;53.010;6.508;2024-01-25T12:13:39;8.30;99.90
76333;DHT22;71254;53.010;6.508;2024-01-25T12:16:06;8.30;99.90
76333;DHT22;71254;53.010;6.508;2024-01-25T12:18:33;8.30;99.90
76333;DHT22;71254;53.010;6.508;2024-01-25T12:21:00;8.30;99.90
76333;DHT22;71254;53.010;6.508;2024-01-25T12:23:37;8.40;99.90
76333;DHT22;71254;53.010;6.508;2024-01-25T12:26:08;8.40;99.90
76333;DHT22;71254;53.010;6.508;2024-01-25T12:28:34;8.50;99.90
76333;DHT22;71254;53.010;6.508;2024-01-25T12:31:00;8.60;99.90
76333;DHT22;71254;53.010;6.508;2024-01-25T12:33:27;8.70;99.90
76333;DHT22;71254;53.010;6.508;2024-01-25T12:35:53;8.70;99.90
76333;DHT22;71254;53.010;6.508;2024-01-25T12:38:21;8.80;99.90
76333;DHT22;71254;53.010;6.508;2024-01-25T12:40:50;8.80;99.90
76333;DHT22;71254;53.010;6.508;2024-01-25T12:43:16;8.90;99.90
76333;DHT22;71254;53.010;6.508;2024-01-25T12:45:42;8.90;99.90
76333;DHT22;71254;53.010;6.508;2024-01-25T12:48:07;8.90;99.90
76333;DHT22;71254;53.010;6.508;2024-01-25T12:50:34;8.90;99.90
76333;DHT22;71254;53.010;6.508;2024-01-25T12:53:01;8.80;99.90
76333;DHT22;71254;53.010;6.508;2024-01-25T12:55:27;8.80;99.90
76333;DHT22;71254;53.010;6.508;2024-01-25T12:57:54;8.80;99.90
76333;DHT22;71254;53.010;6.508;2024-01-25T13:00:21;8.70;99.90
76333;DHT22;71254;53.010;6.508;2024-01-25T13:02:50;8.60;99.90
76333;DHT22;71254;53.010;6.508;2024-01-25T13:05:16;8.60;99.90
76333;DHT22;71254;53.010;6.508;2024-01-25T13:07:42;8.50;99.90
76333;DHT22;71254;53.010;6.508;2024-01-25T13:10:11;8.50;99.90
76333;DHT22;71254;53.010;6.508;2024-01-25T13:12:37;8.50;99.90
76333;DHT22;71254;53.010;6.508;2024-01-25T13:15:04;8.50;99.90
76333;DHT22;71254;53.010;6.508;2024-01-25T13:17:30;8.40;99.90
76333;DHT22;71254;53.010;6.508;2024-01-25T13:19:57;8.40;99.90
76333;DHT22;71254;53.010;6.508;2024-01-25T13:22:23;8.40;99.90
76333;DHT22;71254;53.010;6.508;2024-01-25T13:24:50;8.30;99.90
76333;DHT22;71254;53.010;6.508;2024-01-25T13:27:16;8.30;99.90
76333;DHT22;71254;53.010;6.508;2024-01-25T13:29:41;8.30;99.90
76333;DHT22;71254;53.010;6.508;2024-01-25T13:32:08;8.40;99.90
76333;DHT22;71254;53.010;6.508;2024-01-25T13:34:34;8.40;99.90
76333;DHT22;71254;53.010;6.508;2024-01-25T13:37:01;8.40;99.90
76333;DHT22;71254;53.010;6.508;2024-01-25T13:39:26;8.40;99.90
76333;DHT22;71254;53.010;6.508;2024-01-25T13:41:53;8.50;99.90
76333;DHT22;71254;53.010;6.508;2024-01-25T13:44:19;8.40;99.90
76333;DHT22;71254;53.010;6.508;2024-01-25T13:46:44;8.50;99.90
76333;DHT22;71254;53.010;6.508;2024-01-25T13:49:10;8.50;99.90
76333;DHT22;71254;53.010;6.508;2024-01-25T13:51:35;8.50;99.90
76333;DHT22;71254;53.010;6.508;2024-01-25T13:54:01;8.50;99.90
76333;DHT22;71254;53.010;6.508;2024-01-25T13:56:27;8.60;99.90
76333;DHT22;71254;53.010;6.508;2024-01-25T13:58:52;8.60;99.90
76333;DHT22;71254;53.010;6.508;2024-01-25T14:01:19;8.60;99.90
76333;DHT22;71254;53.010;6.508;2024-01-25T14:03:44;8.70;99.90
76333;DHT22;71254;53.010;6.508;2024-01-25T14:06:10;8.70;99.90
76333;DHT22;71254;53.010;6.508;2024-01-25T14:08:36;8.70;99.90
76333;DHT22;71254;53.010;6.508;2024-01-25T14:11:03;8.70;99.90
76333;DHT22;71254;53.010;6.508;2024-01-25T14:13:28;8.70;99.90
76333;DHT22;71254;53.010;6.508;2024-01-25T14:15:54;8.70;99.90
76333;DHT22;71254;53.010;6.508;2024-01-25T14:18:20;8.70;99.90
76333;DHT22;71254;53.010;6.508;2024-01-25T14:20:46;8.80;99.90
76333;DHT22;71254;53.010;6.508;2024-01-25T14:23:11;8.70;99.90
76333;DHT22;71254;53.010;6.508;2024-01-25T14:25:37;8.70;99.90
76333;DHT22;71254;53.010;6.508;2024-01-25T14:28:02;8.70;99.90
76333;DHT22;71254;53.010;6.508;2024-01-25T14:30:28;8.60;99.90
76333;DHT22;71254;53.010;6.508;2024-01-25T14:32:55;8.60;99.90
76333;DHT22;71254;53.010;6.508;2024-01-25T14:35:22;8.50;99.90
76333;DHT22;71254;53.010;6.508;2024-01-25T14:37:54;8.40;99.90
76333;DHT22;71254;53.010;6.508;2024-01-25T14:40:19;8.40;99.90
76333;DHT22;71254;53.010;6.508;2024-01-25T14:42:45;8.30;99.90
76333;DHT22;71254;53.010;6.508;2024-01-25T14:45:11;8.30;99.90
76333;DHT22;71254;53.010;6.508;2024-01-25T14:47:36;8.20;99.90
76333;DHT22;71254;53.010;6.508;2024-01-25T14:50:02;8.10;99.90
76333;DHT22;71254;53.010;6.508;2024-01-25T14:52:28;8.10;99.90
76333;DHT22;71254;53.010;6.508;2024-01-25T14:54:53;8.00;99.90
76333;DHT22;71254;53.010;6.508;2024-01-25T14:57:19;8.00;99.90
76333;DHT22;71254;53.010;6.508;2024-01-25T14:59:46;8.00;99.90
76333;DHT22;71254;53.010;6.508;2024-01-25T15:02:11;7.90;99.90
76333;DHT22;71254;53.010;6.508;2024-01-25T15:04:37;7.90;99.90
76333;DHT22;71254;53.010;6.508;2024-01-25T15:07:03;7.90;99.90
76333;DHT22;71254;53.010;6.508;2024-01-25T15:09:28;7.80;99.90
76333;DHT22;71254;53.010;6.508;2024-01-25T15:11:54;7.80;99.90
76333;DHT22;71254;53.010;6.508;2024-01-25T15:14:20;7.70;99.90
76333;DHT22;71254;53.010;6.508;2024-01-25T15:16:45;7.70;99.90
76333;DHT22;71254;53.010;6.508;2024-01-25T15:19:11;7.60;99.90
76333;DHT22;71254;53.010;6.508;2024-01-25T15:21:37;7.50;99.90
76333;DHT22;71254;53.010;6.508;2024-01-25T15:24:03;7.50;99.90
76333;DHT22;71254;53.010;6.508;2024-01-25T15:26:29;7.50;99.90
76333;DHT22;71254;53.010;6.508;2024-01-25T15:28:54;7.40;99.90
76333;DHT22;71254;53.010;6.508;2024-01-25T15:31:20;7.40;99.90
76333;DHT22;71254;53.010;6.508;2024-01-25T15:33:45;7.40;99.90
76333;DHT22;71254;53.010;6.508;2024-01-25T15:36:11;7.40;99.90
76333;DHT22;71254;53.010;6.508;2024-01-25T15:38:36;7.40;99.90